sensor_id;sensor_type;location;lat;lon;timestamp;temperature;humidity
21149;DHT22;10732;51.472;6.466;2023-02-07T00:01:27;-1.40;99.90
21149;DHT22;10732;51.472;6.466;2023-02-07T00:03:54;-1.40;99.90
21149;DHT22;10732;51.472;6.466;2023-02-07T00:06:33;-1.50;99.90
21149;DHT22;10732;51.472;6.466;2023-02-07T00:09:00;-1.50;99.90
21149;DHT22;10732;51.472;6.466;2023-02-07T00:11:26;-1.60;99.90
21149;DHT22;10732;51.472;6.466;2023-02-07T00:13:55;-1.60;99.90
21149;DHT22;10732;51.472;6.466;2023-02-07T00:16:21;-1.70;99.90
21149;DHT22;10732;51.472;6.466;2023-02-07T00:18:49;-1.70;99.90
21149;DHT22;10732;51.472;6.466;2023-02-07T00:21:18;-1.80;99.90
21149;DHT22;10732;51.472;6.466;2023-02-07T00:23:44;-1.80;99.90
21149;DHT22;10732;51.472;6.466;2023-02-07T00:26:12;-1.70;99.90
21149;DHT22;10732;51.472;6.466;2023-02-07T00:28:37;-1.70;99.90
21149;DHT22;10732;51.472;6.466;2023-02-07T00:31:08;-1.70;99.90
21149;DHT22;10732;51.472;6.466;2023-02-07T00:33:35;-1.60;99.90
21149;DHT22;10732;51.472;6.466;2023-02-07T00:36:04;-1.70;99.90
21149;DHT22;10732;51.472;6.466;2023-02-07T00:38:30;-1.60;99.90
21149;DHT22;10732;51.472;6.466;2023-02-07T00:40:56;-1.50;99.90
21149;DHT22;10732;51.472;6.466;2023-02-07T00:43:22;-1.50;99.90
21149;DHT22;10732;51.472;6.466;2023-02-07T00:45:47;-1.50;99.90
21149;DHT22;10732;51.472;6.466;2023-02-07T00:48:13;-1.40;99.90
21149;DHT22;10732;51.472;6.466;2023-02-07T00:50:38;-1.30;99.90
21149;DHT22;10732;51.472;6.466;2023-02-07T00:53:04;-1.30;99.90
21149;DHT22;10732;51.472;6.466;2023-02-07T00:55:30;-1.20;99.90
21149;DHT22;10732;51.472;6.466;2023-02-07T00:57:56;-1.20;99.90
21149;DHT22;10732;51.472;6.466;2023-02-07T01:00:21;-1.30;99.90
21149;DHT22;10732;51.472;6.466;2023-02-07T01:02:47;-1.30;99.90
21149;DHT22;10732;51.472;6.466;2023-02-07T01:05:12;-1.40;99.90
21149;DHT22;10732;51.472;6.466;2023-02-07T01:07:38;-1.60;99.90
21149;DHT22;10732;51.472;6.466;2023-02-07T01:10:04;-1.70;99.90
21149;DHT22;10732;51.472;6.466;2023-02-07T01:12:29;-1.80;99.90
21149;DHT22;10732;51.472;6.466;2023-02-07T01:14:55;-1.90;99.90
21149;DHT22;10732;51.472;6.466;2023-02-07T01:17:20;-1.90;99.90
21149;DHT22;10732;51.472;6.466;2023-02-07T01:19:46;-1.90;99.90
21149;DHT22;10732;51.472;6.466;2023-02-07T01:22:11;-1.90;99.90
21149;DHT22;10732;51.472;6.466;2023-02-07T01:24:37;-2.00;99.90
21149;DHT22;10732;51.472;6.466;2023-02-07T01:27:03;-2.00;99.90
21149;DHT22;10732;51.472;6.466;2023-02-07T01:29:29;-1.90;99.90
21149;DHT22;10732;51.472;6.466;2023-02-07T01:31:54;-1.90;99.90
21149;DHT22;10732;51.472;6.466;2023-02-07T01:34:20;-1.90;99.90
21149;DHT22;10732;51.472;6.466;2023-02-07T01:36:45;-1.90;99.90
21149;DHT22;10732;51.472;6.466;2023-02-07T01:39:11;-2.00;99.90
21149;DHT22;10732;51.472;6.466;2023-02-07T01:41:37;-2.10;99.90
21149;DHT22;10732;51.472;6.466;2023-02-07T01:44:05;-2.10;99.90
21149;DHT22;10732;51.472;6.466;2023-02-07T01:46:33;-2.10;99.90
21149;DHT22;10732;51.472;6.466;2023-02-07T01:49:05;-2.20;99.90
21149;DHT22;10732;51.472;6.466;2023-02-07T01:51:33;-2.20;99.90
21149;DHT22;10732;51.472;6.466;2023-02-07T01:54:02;-2.20;99.90
21149;DHT22;10732;51.472;6.466;2023-02-07T01:56:28;-2.20;99.90
21149;DHT22;10732;51.472;6.466;2023-02-07T01:58:54;-2.30;99.90
21149;DHT22;10732;51.472;6.466;2023-02-07T02:01:23;-2.40;99.90
21149;DHT22;10732;51.472;6.466;2023-02-07T02:03:51;-2.50;99.90
21149;DHT22;10732;51.472;6.466;2023-02-07T02:06:19;-2.50;99.90
21149;DHT22;10732;51.472;6.466;2023-02-07T02:08:45;-2.50;99.90
21149;DHT22;10732;51.472;6.466;2023-02-07T02:11:27;-2.50;99.90
21149;DHT22;10732;51.472;6.466;2023-02-07T02:20:10;-2.60;99.90
21149;DHT22;10732;51.472;6.466;2023-02-07T02:23:05;-2.70;99.90
21149;DHT22;10732;51.472;6.466;2023-02-07T02:36:56;-2.20;99.90
21149;DHT22;10732;51.472;6.466;2023-02-07T02:45:07;-2.10;99.90
21149;DHT22;10732;51.472;6.466;2023-02-07T02:47:35;-2.10;99.90
21149;DHT22;10732;51.472;6.466;2023-02-07T02:50:01;-2.10;99.90
21149;DHT22;10732;51.472;6.466;2023-02-07T02:52:27;-2.10;99.90
21149;DHT22;10732;51.472;6.466;2023-02-07T02:54:53;-2.20;99.90
21149;DHT22;10732;51.472;6.466;2023-02-07T03:05:27;-2.60;99.90
21149;DHT22;10732;51.472;6.466;2023-02-07T03:16:22;-2.80;99.90
21149;DHT22;10732;51.472;6.466;2023-02-07T03:22:10;-3.00;99.90
21149;DHT22;10732;51.472;6.466;2023-02-07T03:24:41;-3.10;99.90
21149;DHT22;10732;51.472;6.466;2023-02-07T03:27:12;-3.20;99.90
21149;DHT22;10732;51.472;6.466;2023-02-07T03:29:41;-3.20;99.90
21149;DHT22;10732;51.472;6.466;2023-02-07T03:32:09;-3.30;99.90
21149;DHT22;10732;51.472;6.466;2023-02-07T03:40:05;-3.40;99.90
21149;DHT22;10732;51.472;6.466;2023-02-07T03:42:37;-3.40;99.90
21149;DHT22;10732;51.472;6.466;2023-02-07T03:45:06;-3.40;99.90
21149;DHT22;10732;51.472;6.466;2023-02-07T03:47:33;-3.40;99.90
21149;DHT22;10732;51.472;6.466;2023-02-07T03:49:58;-3.40;99.90
21149;DHT22;10732;51.472;6.466;2023-02-07T03:52:24;-3.40;99.90
21149;DHT22;10732;51.472;6.466;2023-02-07T03:54:50;-3.50;99.90
21149;DHT22;10732;51.472;6.466;2023-02-07T03:57:15;-3.50;99.90
21149;DHT22;10732;51.472;6.466;2023-02-07T03:59:41;-3.50;99.90
21149;DHT22;10732;51.472;6.466;2023-02-07T04:02:06;-3.60;99.90
21149;DHT22;10732;51.472;6.466;2023-02-07T04:04:32;-3.60;99.90
21149;DHT22;10732;51.472;6.466;2023-02-07T04:06:57;-3.70;99.90
21149;DHT22;10732;51.472;6.466;2023-02-07T04:09:23;-3.70;99.90
21149;DHT22;10732;51.472;6.466;2023-02-07T04:11:49;-3.70;99.90
21149;DHT22;10732;51.472;6.466;2023-02-07T04:14:15;-3.80;99.90
21149;DHT22;10732;51.472;6.466;2023-02-07T04:16:40;-3.80;99.90
21149;DHT22;10732;51.472;6.466;2023-02-07T04:19:06;-3.80;99.90
21149;DHT22;10732;51.472;6.466;2023-02-07T04:21:32;-3.80;99.90
21149;DHT22;10732;51.472;6.466;2023-02-07T04:23:57;-3.90;99.90
21149;DHT22;10732;51.472;6.466;2023-02-07T04:26:23;-3.90;99.90
21149;DHT22;10732;51.472;6.466;2023-02-07T04:28:48;-3.90;99.90
21149;DHT22;10732;51.472;6.466;2023-02-07T04:31:14;-3.90;99.90
21149;DHT22;10732;51.472;6.466;2023-02-07T04:33:39;-3.90;99.90
21149;DHT22;10732;51.472;6.466;2023-02-07T04:36:05;-3.90;99.90
21149;DHT22;10732;51.472;6.466;2023-02-07T04:38:31;-3.90;99.90
21149;DHT22;10732;51.472;6.466;2023-02-07T04:40:58;-4.00;99.90
21149;DHT22;10732;51.472;6.466;2023-02-07T04:43:24;-4.00;99.90
21149;DHT22;10732;51.472;6.466;2023-02-07T04:45:50;-4.00;99.90
21149;DHT22;10732;51.472;6.466;2023-02-07T04:48:16;-4.00;99.90
21149;DHT22;10732;51.472;6.466;2023-02-07T04:50:42;-4.10;99.90
21149;DHT22;10732;51.472;6.466;2023-02-07T04:53:07;-4.10;99.90
21149;DHT22;10732;51.472;6.466;2023-02-07T04:55:33;-4.10;99.90
21149;DHT22;10732;51.472;6.466;2023-02-07T04:58:00;-4.10;99.90
21149;DHT22;10732;51.472;6.466;2023-02-07T05:00:25;-4.10;99.90
21149;DHT22;10732;51.472;6.466;2023-02-07T05:02:51;-4.20;99.90
21149;DHT22;10732;51.472;6.466;2023-02-07T05:05:17;-4.20;99.90
21149;DHT22;10732;51.472;6.466;2023-02-07T05:07:42;-4.10;99.90
21149;DHT22;10732;51.472;6.466;2023-02-07T05:10:08;-4.00;99.90
21149;DHT22;10732;51.472;6.466;2023-02-07T05:12:33;-4.00;99.90
21149;DHT22;10732;51.472;6.466;2023-02-07T05:14:59;-3.90;99.90
21149;DHT22;10732;51.472;6.466;2023-02-07T05:17:24;-3.80;99.90
21149;DHT22;10732;51.472;6.466;2023-02-07T05:19:50;-3.70;99.90
21149;DHT22;10732;51.472;6.466;2023-02-07T05:22:16;-3.60;99.90
21149;DHT22;10732;51.472;6.466;2023-02-07T05:24:41;-3.60;99.90
21149;DHT22;10732;51.472;6.466;2023-02-07T05:27:08;-3.50;99.90
21149;DHT22;10732;51.472;6.466;2023-02-07T05:29:33;-3.60;99.90
21149;DHT22;10732;51.472;6.466;2023-02-07T05:31:59;-3.60;99.90
21149;DHT22;10732;51.472;6.466;2023-02-07T05:34:43;-3.60;99.90
21149;DHT22;10732;51.472;6.466;2023-02-07T05:37:08;-3.60;99.90
21149;DHT22;10732;51.472;6.466;2023-02-07T05:39:34;-3.60;99.90
21149;DHT22;10732;51.472;6.466;2023-02-07T05:42:00;-3.60;99.90
21149;DHT22;10732;51.472;6.466;2023-02-07T05:44:25;-3.60;99.90
21149;DHT22;10732;51.472;6.466;2023-02-07T05:46:51;-3.60;99.90
21149;DHT22;10732;51.472;6.466;2023-02-07T05:49:16;-3.60;99.90
21149;DHT22;10732;51.472;6.466;2023-02-07T05:51:42;-3.70;99.90
21149;DHT22;10732;51.472;6.466;2023-02-07T05:54:07;-3.70;99.90
21149;DHT22;10732;51.472;6.466;2023-02-07T05:56:33;-3.60;99.90
21149;DHT22;10732;51.472;6.466;2023-02-07T05:58:58;-3.60;99.90
21149;DHT22;10732;51.472;6.466;2023-02-07T06:01:24;-3.60;99.90
21149;DHT22;10732;51.472;6.466;2023-02-07T06:03:49;-3.60;99.90
21149;DHT22;10732;51.472;6.466;2023-02-07T06:06:15;-3.60;99.90
21149;DHT22;10732;51.472;6.466;2023-02-07T06:08:40;-3.60;99.90
21149;DHT22;10732;51.472;6.466;2023-02-07T06:11:06;-3.60;99.90
21149;DHT22;10732;51.472;6.466;2023-02-07T06:13:31;-3.60;99.90
21149;DHT22;10732;51.472;6.466;2023-02-07T06:15:57;-3.50;99.90
21149;DHT22;10732;51.472;6.466;2023-02-07T06:18:23;-3.50;99.90
21149;DHT22;10732;51.472;6.466;2023-02-07T06:20:50;-3.50;99.90
21149;DHT22;10732;51.472;6.466;2023-02-07T06:23:15;-3.50;99.90
21149;DHT22;10732;51.472;6.466;2023-02-07T06:25:41;-3.40;99.90
21149;DHT22;10732;51.472;6.466;2023-02-07T06:28:07;-3.30;99.90
21149;DHT22;10732;51.472;6.466;2023-02-07T06:30:32;-3.30;99.90
21149;DHT22;10732;51.472;6.466;2023-02-07T06:32:58;-3.30;99.90
21149;DHT22;10732;51.472;6.466;2023-02-07T06:35:23;-3.30;99.90
21149;DHT22;10732;51.472;6.466;2023-02-07T06:37:49;-3.10;99.90
21149;DHT22;10732;51.472;6.466;2023-02-07T06:40:14;-3.10;99.90
21149;DHT22;10732;51.472;6.466;2023-02-07T06:42:40;-3.10;99.90
21149;DHT22;10732;51.472;6.466;2023-02-07T06:45:06;-3.10;99.90
21149;DHT22;10732;51.472;6.466;2023-02-07T06:47:32;-3.10;99.90
21149;DHT22;10732;51.472;6.466;2023-02-07T06:49:57;-3.10;99.90
21149;DHT22;10732;51.472;6.466;2023-02-07T06:52:23;-3.10;99.90
21149;DHT22;10732;51.472;6.466;2023-02-07T06:54:48;-3.10;99.90
21149;DHT22;10732;51.472;6.466;2023-02-07T06:57:14;-3.10;99.90
21149;DHT22;10732;51.472;6.466;2023-02-07T06:59:39;-3.10;99.90
21149;DHT22;10732;51.472;6.466;2023-02-07T07:02:05;-2.90;99.90
21149;DHT22;10732;51.472;6.466;2023-02-07T07:04:31;-2.90;99.90
21149;DHT22;10732;51.472;6.466;2023-02-07T07:06:56;-2.90;99.90
21149;DHT22;10732;51.472;6.466;2023-02-07T07:09:22;-2.90;99.90
21149;DHT22;10732;51.472;6.466;2023-02-07T07:11:47;-3.00;99.90
21149;DHT22;10732;51.472;6.466;2023-02-07T07:14:13;-3.00;99.90
21149;DHT22;10732;51.472;6.466;2023-02-07T07:16:38;-2.80;99.90
21149;DHT22;10732;51.472;6.466;2023-02-07T07:19:07;-2.90;99.90
21149;DHT22;10732;51.472;6.466;2023-02-07T07:21:32;-2.80;99.90
21149;DHT22;10732;51.472;6.466;2023-02-07T07:23:58;-2.80;99.90
21149;DHT22;10732;51.472;6.466;2023-02-07T07:26:23;-2.80;99.90
21149;DHT22;10732;51.472;6.466;2023-02-07T07:28:49;-2.90;99.90
21149;DHT22;10732;51.472;6.466;2023-02-07T07:31:15;-2.80;99.90
21149;DHT22;10732;51.472;6.466;2023-02-07T07:33:41;-2.80;99.90
21149;DHT22;10732;51.472;6.466;2023-02-07T07:36:07;-2.80;99.90
21149;DHT22;10732;51.472;6.466;2023-02-07T07:38:32;-2.80;99.90
21149;DHT22;10732;51.472;6.466;2023-02-07T07:40:58;-2.80;99.90
21149;DHT22;10732;51.472;6.466;2023-02-07T07:43:24;-2.70;99.90
21149;DHT22;10732;51.472;6.466;2023-02-07T07:45:55;-2.50;99.90
21149;DHT22;10732;51.472;6.466;2023-02-07T07:48:22;-2.50;99.90
21149;DHT22;10732;51.472;6.466;2023-02-07T07:50:47;-2.30;99.90
21149;DHT22;10732;51.472;6.466;2023-02-07T07:53:13;-2.50;99.90
21149;DHT22;10732;51.472;6.466;2023-02-07T07:55:40;-2.40;99.90
21149;DHT22;10732;51.472;6.466;2023-02-07T07:58:05;-2.40;99.90
21149;DHT22;10732;51.472;6.466;2023-02-07T08:00:31;-2.30;99.90
21149;DHT22;10732;51.472;6.466;2023-02-07T08:02:56;-2.20;99.90
21149;DHT22;10732;51.472;6.466;2023-02-07T08:05:22;-2.30;99.90
21149;DHT22;10732;51.472;6.466;2023-02-07T08:07:47;-2.40;99.90
21149;DHT22;10732;51.472;6.466;2023-02-07T08:10:13;-2.40;99.90
21149;DHT22;10732;51.472;6.466;2023-02-07T08:12:38;-2.30;99.90
21149;DHT22;10732;51.472;6.466;2023-02-07T08:15:04;-2.00;99.90
21149;DHT22;10732;51.472;6.466;2023-02-07T08:17:32;-1.90;99.90
21149;DHT22;10732;51.472;6.466;2023-02-07T08:19:57;-1.90;99.90
21149;DHT22;10732;51.472;6.466;2023-02-07T08:22:23;-1.70;99.90
21149;DHT22;10732;51.472;6.466;2023-02-07T08:24:48;-1.80;99.90
21149;DHT22;10732;51.472;6.466;2023-02-07T08:27:14;-1.60;99.90
21149;DHT22;10732;51.472;6.466;2023-02-07T08:29:39;-1.00;99.90
21149;DHT22;10732;51.472;6.466;2023-02-07T08:32:05;0.30;99.90
21149;DHT22;10732;51.472;6.466;2023-02-07T08:34:30;1.00;99.90
21149;DHT22;10732;51.472;6.466;2023-02-07T08:37:05;1.40;99.90
21149;DHT22;10732;51.472;6.466;2023-02-07T08:39:30;2.50;99.90
21149;DHT22;10732;51.472;6.466;2023-02-07T08:41:56;3.10;99.90
21149;DHT22;10732;51.472;6.466;2023-02-07T08:44:22;3.70;99.90
21149;DHT22;10732;51.472;6.466;2023-02-07T08:46:47;4.20;99.90
21149;DHT22;10732;51.472;6.466;2023-02-07T08:49:13;4.70;99.90
21149;DHT22;10732;51.472;6.466;2023-02-07T08:51:38;6.10;99.90
21149;DHT22;10732;51.472;6.466;2023-02-07T08:54:06;6.70;99.90
21149;DHT22;10732;51.472;6.466;2023-02-07T08:56:31;6.90;99.90
21149;DHT22;10732;51.472;6.466;2023-02-07T08:58:57;6.90;99.90
21149;DHT22;10732;51.472;6.466;2023-02-07T09:01:22;6.40;99.90
21149;DHT22;10732;51.472;6.466;2023-02-07T09:03:48;5.40;99.90
21149;DHT22;10732;51.472;6.466;2023-02-07T09:06:13;6.30;99.90
21149;DHT22;10732;51.472;6.466;2023-02-07T09:08:39;6.50;99.90
21149;DHT22;10732;51.472;6.466;2023-02-07T09:11:04;6.60;99.90
21149;DHT22;10732;51.472;6.466;2023-02-07T09:13:30;6.20;99.90
21149;DHT22;10732;51.472;6.466;2023-02-07T09:15:56;6.70;99.90
21149;DHT22;10732;51.472;6.466;2023-02-07T09:18:24;6.80;99.90
21149;DHT22;10732;51.472;6.466;2023-02-07T09:20:50;7.00;99.90
21149;DHT22;10732;51.472;6.466;2023-02-07T09:23:15;9.30;99.90
21149;DHT22;10732;51.472;6.466;2023-02-07T09:25:46;9.50;99.90
21149;DHT22;10732;51.472;6.466;2023-02-07T09:28:12;10.30;99.90
21149;DHT22;10732;51.472;6.466;2023-02-07T09:30:42;8.60;99.90
21149;DHT22;10732;51.472;6.466;2023-02-07T09:33:08;8.00;99.90
21149;DHT22;10732;51.472;6.466;2023-02-07T09:35:43;8.10;99.90
21149;DHT22;10732;51.472;6.466;2023-02-07T09:38:16;8.30;99.90
21149;DHT22;10732;51.472;6.466;2023-02-07T09:40:43;10.20;99.90
21149;DHT22;10732;51.472;6.466;2023-02-07T09:43:13;11.40;99.90
21149;DHT22;10732;51.472;6.466;2023-02-07T09:45:46;10.80;99.90
21149;DHT22;10732;51.472;6.466;2023-02-07T09:48:44;10.90;99.90
21149;DHT22;10732;51.472;6.466;2023-02-07T09:51:11;8.40;99.90
21149;DHT22;10732;51.472;6.466;2023-02-07T09:53:45;8.00;99.90
21149;DHT22;10732;51.472;6.466;2023-02-07T09:56:16;9.00;99.90
21149;DHT22;10732;51.472;6.466;2023-02-07T10:01:41;8.70;99.90
21149;DHT22;10732;51.472;6.466;2023-02-07T10:04:27;11.30;99.90
21149;DHT22;10732;51.472;6.466;2023-02-07T10:06:57;9.70;99.90
21149;DHT22;10732;51.472;6.466;2023-02-07T10:09:29;9.20;99.90
21149;DHT22;10732;51.472;6.466;2023-02-07T10:15:39;9.80;99.90
21149;DHT22;10732;51.472;6.466;2023-02-07T10:18:20;10.50;99.90
21149;DHT22;10732;51.472;6.466;2023-02-07T10:24:12;9.40;99.90
21149;DHT22;10732;51.472;6.466;2023-02-07T10:26:46;8.50;99.90
21149;DHT22;10732;51.472;6.466;2023-02-07T10:31:59;8.50;99.90
21149;DHT22;10732;51.472;6.466;2023-02-07T10:34:34;9.10;99.90
21149;DHT22;10732;51.472;6.466;2023-02-07T10:37:14;10.40;99.90
21149;DHT22;10732;51.472;6.466;2023-02-07T10:39:47;9.90;99.90
21149;DHT22;10732;51.472;6.466;2023-02-07T10:42:16;9.10;99.90
21149;DHT22;10732;51.472;6.466;2023-02-07T10:44:42;9.30;99.90
21149;DHT22;10732;51.472;6.466;2023-02-07T10:47:13;9.70;99.90
21149;DHT22;10732;51.472;6.466;2023-02-07T10:49:40;8.60;99.90
21149;DHT22;10732;51.472;6.466;2023-02-07T10:54:51;9.50;99.90
21149;DHT22;10732;51.472;6.466;2023-02-07T10:57:19;9.60;99.90
21149;DHT22;10732;51.472;6.466;2023-02-07T10:59:45;8.80;99.90
21149;DHT22;10732;51.472;6.466;2023-02-07T11:04:53;9.30;99.90
21149;DHT22;10732;51.472;6.466;2023-02-07T11:07:20;9.40;99.90
21149;DHT22;10732;51.472;6.466;2023-02-07T11:09:46;9.50;99.90
21149;DHT22;10732;51.472;6.466;2023-02-07T11:12:22;9.80;99.90
21149;DHT22;10732;51.472;6.466;2023-02-07T11:15:06;10.20;99.90
21149;DHT22;10732;51.472;6.466;2023-02-07T11:17:35;9.90;99.90
21149;DHT22;10732;51.472;6.466;2023-02-07T11:20:03;9.30;99.90
21149;DHT22;10732;51.472;6.466;2023-02-07T11:22:29;9.40;99.90
21149;DHT22;10732;51.472;6.466;2023-02-07T11:25:02;10.70;99.90
21149;DHT22;10732;51.472;6.466;2023-02-07T11:27:28;10.10;99.90
21149;DHT22;10732;51.472;6.466;2023-02-07T11:30:07;10.30;99.90
21149;DHT22;10732;51.472;6.466;2023-02-07T11:32:33;10.70;99.90
21149;DHT22;10732;51.472;6.466;2023-02-07T11:35:05;9.50;99.90
21149;DHT22;10732;51.472;6.466;2023-02-07T11:37:38;9.70;99.90
21149;DHT22;10732;51.472;6.466;2023-02-07T11:43:19;9.50;99.90
21149;DHT22;10732;51.472;6.466;2023-02-07T11:45:50;8.70;99.90
21149;DHT22;10732;51.472;6.466;2023-02-07T11:48:23;9.60;99.90
21149;DHT22;10732;51.472;6.466;2023-02-07T11:50:54;8.80;99.90
21149;DHT22;10732;51.472;6.466;2023-02-07T11:53:29;9.10;99.90
21149;DHT22;10732;51.472;6.466;2023-02-07T11:55:57;8.80;99.90
21149;DHT22;10732;51.472;6.466;2023-02-07T11:58:32;8.40;99.90
21149;DHT22;10732;51.472;6.466;2023-02-07T12:01:00;8.20;99.90
21149;DHT22;10732;51.472;6.466;2023-02-07T12:03:48;9.20;99.90
21149;DHT22;10732;51.472;6.466;2023-02-07T12:06:18;9.50;99.90
21149;DHT22;10732;51.472;6.466;2023-02-07T12:08:44;9.40;99.90
21149;DHT22;10732;51.472;6.466;2023-02-07T12:11:34;9.50;99.90
21149;DHT22;10732;51.472;6.466;2023-02-07T12:14:26;10.00;99.90
21149;DHT22;10732;51.472;6.466;2023-02-07T12:16:56;8.70;99.90
21149;DHT22;10732;51.472;6.466;2023-02-07T12:20:00;8.90;99.90
21149;DHT22;10732;51.472;6.466;2023-02-07T12:22:39;8.00;99.90
21149;DHT22;10732;51.472;6.466;2023-02-07T12:25:15;7.00;99.90
21149;DHT22;10732;51.472;6.466;2023-02-07T12:27:43;6.90;99.90
21149;DHT22;10732;51.472;6.466;2023-02-07T12:30:33;6.70;99.90
21149;DHT22;10732;51.472;6.466;2023-02-07T12:33:09;6.30;99.90
21149;DHT22;10732;51.472;6.466;2023-02-07T12:35:42;6.10;99.90
21149;DHT22;10732;51.472;6.466;2023-02-07T12:40:47;5.90;99.90
21149;DHT22;10732;51.472;6.466;2023-02-07T12:43:23;6.00;99.90
21149;DHT22;10732;51.472;6.466;2023-02-07T12:48:52;6.10;99.90
21149;DHT22;10732;51.472;6.466;2023-02-07T12:54:14;5.80;99.90
21149;DHT22;10732;51.472;6.466;2023-02-07T12:59:31;5.70;99.90
21149;DHT22;10732;51.472;6.466;2023-02-07T13:05:17;5.50;99.90
21149;DHT22;10732;51.472;6.466;2023-02-07T13:07:53;5.60;99.90
21149;DHT22;10732;51.472;6.466;2023-02-07T13:10:35;5.80;99.90
21149;DHT22;10732;51.472;6.466;2023-02-07T13:13:49;5.70;99.90
21149;DHT22;10732;51.472;6.466;2023-02-07T13:21:56;5.70;99.90
21149;DHT22;10732;51.472;6.466;2023-02-07T13:24:25;5.50;99.90
21149;DHT22;10732;51.472;6.466;2023-02-07T13:26:58;5.60;99.90
21149;DHT22;10732;51.472;6.466;2023-02-07T13:29:26;5.70;99.90
21149;DHT22;10732;51.472;6.466;2023-02-07T13:31:56;5.60;99.90
21149;DHT22;10732;51.472;6.466;2023-02-07T13:34:25;5.70;99.90
21149;DHT22;10732;51.472;6.466;2023-02-07T13:36:52;5.70;99.90
21149;DHT22;10732;51.472;6.466;2023-02-07T13:39:23;5.70;99.90
21149;DHT22;10732;51.472;6.466;2023-02-07T13:44:33;5.80;99.90
21149;DHT22;10732;51.472;6.466;2023-02-07T13:50:01;5.80;99.90
21149;DHT22;10732;51.472;6.466;2023-02-07T13:57:49;5.90;99.90
21149;DHT22;10732;51.472;6.466;2023-02-07T14:00:58;5.90;99.90
21149;DHT22;10732;51.472;6.466;2023-02-07T14:03:32;5.90;99.90
21149;DHT22;10732;51.472;6.466;2023-02-07T14:06:23;5.90;99.90
21149;DHT22;10732;51.472;6.466;2023-02-07T14:09:16;5.80;99.90
21149;DHT22;10732;51.472;6.466;2023-02-07T14:12:02;5.80;99.90
21149;DHT22;10732;51.472;6.466;2023-02-07T14:14:31;5.90;99.90
21149;DHT22;10732;51.472;6.466;2023-02-07T14:17:01;5.80;99.90
21149;DHT22;10732;51.472;6.466;2023-02-07T14:22:15;5.90;99.90
21149;DHT22;10732;51.472;6.466;2023-02-07T14:27:39;5.90;99.90
21149;DHT22;10732;51.472;6.466;2023-02-07T14:30:26;5.90;99.90
21149;DHT22;10732;51.472;6.466;2023-02-07T14:35:44;5.80;99.90
21149;DHT22;10732;51.472;6.466;2023-02-07T14:38:21;5.80;99.90
21149;DHT22;10732;51.472;6.466;2023-02-07T14:40:51;5.80;99.90
21149;DHT22;10732;51.472;6.466;2023-02-07T14:43:28;5.80;99.90
21149;DHT22;10732;51.472;6.466;2023-02-07T14:48:46;5.80;99.90
21149;DHT22;10732;51.472;6.466;2023-02-07T14:51:29;5.80;99.90
21149;DHT22;10732;51.472;6.466;2023-02-07T14:54:01;5.70;99.90
21149;DHT22;10732;51.472;6.466;2023-02-07T14:56:43;5.70;99.90
21149;DHT22;10732;51.472;6.466;2023-02-07T14:59:15;5.80;99.90
21149;DHT22;10732;51.472;6.466;2023-02-07T15:01:41;5.70;99.90
21149;DHT22;10732;51.472;6.466;2023-02-07T15:04:08;5.70;99.90
21149;DHT22;10732;51.472;6.466;2023-02-07T15:06:43;5.80;99.90
21149;DHT22;10732;51.472;6.466;2023-02-07T15:09:25;5.70;99.90
21149;DHT22;10732;51.472;6.466;2023-02-07T15:11:53;5.70;99.90
21149;DHT22;10732;51.472;6.466;2023-02-07T15:14:23;5.70;99.90
21149;DHT22;10732;51.472;6.466;2023-02-07T15:16:50;5.70;99.90
21149;DHT22;10732;51.472;6.466;2023-02-07T15:21:50;5.70;99.90
21149;DHT22;10732;51.472;6.466;2023-02-07T15:26:48;5.60;99.90
21149;DHT22;10732;51.472;6.466;2023-02-07T15:29:27;5.60;99.90
21149;DHT22;10732;51.472;6.466;2023-02-07T15:31:53;5.50;99.90
21149;DHT22;10732;51.472;6.466;2023-02-07T15:34:21;5.50;99.90
21149;DHT22;10732;51.472;6.466;2023-02-07T15:36:50;5.50;99.90
21149;DHT22;10732;51.472;6.466;2023-02-07T15:39:21;5.40;99.90
21149;DHT22;10732;51.472;6.466;2023-02-07T15:41:54;5.50;99.90
21149;DHT22;10732;51.472;6.466;2023-02-07T15:44:26;5.40;99.90
21149;DHT22;10732;51.472;6.466;2023-02-07T15:47:04;5.40;99.90
21149;DHT22;10732;51.472;6.466;2023-02-07T15:49:38;5.30;99.90
21149;DHT22;10732;51.472;6.466;2023-02-07T15:54:55;5.10;99.90
21149;DHT22;10732;51.472;6.466;2023-02-07T15:57:38;5.00;99.90
21149;DHT22;10732;51.472;6.466;2023-02-07T16:00:07;4.90;99.90
21149;DHT22;10732;51.472;6.466;2023-02-07T16:02:36;4.90;99.90
21149;DHT22;10732;51.472;6.466;2023-02-07T16:05:19;4.80;99.90
21149;DHT22;10732;51.472;6.466;2023-02-07T16:07:46;4.60;99.90
21149;DHT22;10732;51.472;6.466;2023-02-07T16:12:51;4.10;99.90
21149;DHT22;10732;51.472;6.466;2023-02-07T16:15:34;3.90;99.90
21149;DHT22;10732;51.472;6.466;2023-02-07T16:18:02;3.60;99.90
21149;DHT22;10732;51.472;6.466;2023-02-07T16:20:29;3.50;99.90
21149;DHT22;10732;51.472;6.466;2023-02-07T16:22:59;3.40;99.90
21149;DHT22;10732;51.472;6.466;2023-02-07T16:25:30;3.30;99.90
21149;DHT22;10732;51.472;6.466;2023-02-07T16:27:56;3.10;99.90
21149;DHT22;10732;51.472;6.466;2023-02-07T16:30:34;3.10;99.90
21149;DHT22;10732;51.472;6.466;2023-02-07T16:33:04;2.90;99.90
21149;DHT22;10732;51.472;6.466;2023-02-07T16:35:30;2.90;99.90
21149;DHT22;10732;51.472;6.466;2023-02-07T16:37:56;2.70;99.90
21149;DHT22;10732;51.472;6.466;2023-02-07T16:40:22;2.70;99.90
21149;DHT22;10732;51.472;6.466;2023-02-07T16:42:48;2.50;99.90
21149;DHT22;10732;51.472;6.466;2023-02-07T16:45:20;2.40;99.90
21149;DHT22;10732;51.472;6.466;2023-02-07T16:47:48;2.20;99.90
21149;DHT22;10732;51.472;6.466;2023-02-07T16:50:17;2.10;99.90
21149;DHT22;10732;51.472;6.466;2023-02-07T16:52:43;2.00;99.90
21149;DHT22;10732;51.472;6.466;2023-02-07T16:55:09;1.90;99.90
21149;DHT22;10732;51.472;6.466;2023-02-07T16:57:36;1.70;99.90
21149;DHT22;10732;51.472;6.466;2023-02-07T17:00:04;1.70;99.90
21149;DHT22;10732;51.472;6.466;2023-02-07T17:02:30;1.70;99.90
21149;DHT22;10732;51.472;6.466;2023-02-07T17:04:56;1.60;99.90
21149;DHT22;10732;51.472;6.466;2023-02-07T17:07:21;1.50;99.90
21149;DHT22;10732;51.472;6.466;2023-02-07T17:09:47;1.40;99.90
21149;DHT22;10732;51.472;6.466;2023-02-07T17:12:14;1.40;99.90
21149;DHT22;10732;51.472;6.466;2023-02-07T17:14:40;1.30;99.90
21149;DHT22;10732;51.472;6.466;2023-02-07T17:17:06;1.30;99.90
21149;DHT22;10732;51.472;6.466;2023-02-07T17:19:31;1.30;99.90
21149;DHT22;10732;51.472;6.466;2023-02-07T17:21:57;1.20;99.90
21149;DHT22;10732;51.472;6.466;2023-02-07T17:24:22;1.10;99.90
21149;DHT22;10732;51.472;6.466;2023-02-07T17:26:50;1.00;99.90
21149;DHT22;10732;51.472;6.466;2023-02-07T17:29:17;0.90;99.90
21149;DHT22;10732;51.472;6.466;2023-02-07T17:31:43;0.90;99.90
21149;DHT22;10732;51.472;6.466;2023-02-07T17:34:09;0.90;99.90
21149;DHT22;10732;51.472;6.466;2023-02-07T17:36:35;0.90;99.90
21149;DHT22;10732;51.472;6.466;2023-02-07T17:39:01;0.80;99.90
21149;DHT22;10732;51.472;6.466;2023-02-07T17:41:27;0.80;99.90
21149;DHT22;10732;51.472;6.466;2023-02-07T17:43:53;0.70;99.90
21149;DHT22;10732;51.472;6.466;2023-02-07T17:46:20;0.60;99.90
21149;DHT22;10732;51.472;6.466;2023-02-07T17:48:48;0.50;99.90
21149;DHT22;10732;51.472;6.466;2023-02-07T17:51:17;0.50;99.90